Correctionville, Iowa
Current Conditions -  °F | °C
As of 2:35 AM on Sunday 26 Oct 2014 (Local Time) from KCKP Reporting Station
Clear Clear  
Wind Chill: 41°   Ceiling: Unl
Heat Index: 44°   Visibility: 10mi
Dew Point: 36°   Wind: 5mph
Humidity: 74%   Direction: 90°E
Pressure: 30.01"   Gusts: NA
Location:  42.47°N, 95.79°W
Report Text: KCKP 260735Z AUTO 09004KT 10SM CLR 06/02 A3001 RMK AO2 T00640021
Loading
Personal Weather Stations






























Interactive Weather Map
Tropical Storm Tracking
New forecast layout! Learn more

10-Day Weather Forecast

Advertisements
Track Severe Weather on mobile